createdAt,value
2023-05-16T00:00:53.345Z,8.38
2023-05-16T00:03:22.266Z,8.35
2023-05-16T00:05:50.796Z,8.37
2023-05-16T00:08:20.679Z,8.77
2023-05-16T00:10:49.081Z,9.36
2023-05-16T00:13:22.323Z,9.23
2023-05-16T00:15:52.127Z,9.32
2023-05-16T00:18:22.179Z,9.12
2023-05-16T00:20:52.544Z,9.04
2023-05-16T00:23:23.013Z,8.83
2023-05-16T00:25:51.623Z,8.76
2023-05-16T00:28:20.005Z,8.65
2023-05-16T00:30:48.836Z,8.51
2023-05-16T00:33:18.121Z,8.40
2023-05-16T00:35:46.958Z,8.31
2023-05-16T00:38:15.318Z,8.22
2023-05-16T00:40:47.880Z,8.13
2023-05-16T00:43:16.456Z,7.99
2023-05-16T00:45:45.337Z,7.91
2023-05-16T00:48:14.703Z,7.87
2023-05-16T00:50:43.206Z,7.80
2023-05-16T00:53:11.796Z,7.68
2023-05-16T00:55:40.467Z,7.70
2023-05-16T00:58:11.551Z,7.82
2023-05-16T01:00:40.262Z,7.81
2023-05-16T01:03:08.830Z,7.75
2023-05-16T01:05:37.375Z,7.75
2023-05-16T01:08:06.175Z,7.77
2023-05-16T01:10:41.539Z,7.73
2023-05-16T01:13:14.420Z,7.72
2023-05-16T01:15:45.951Z,7.77
2023-05-16T01:18:21.374Z,7.76
2023-05-16T01:20:53.767Z,7.80
2023-05-16T01:23:37.797Z,7.83
2023-05-16T01:26:17.386Z,7.85
2023-05-16T01:28:47.725Z,7.94
2023-05-16T01:31:17.103Z,7.92
2023-05-16T01:33:46.610Z,7.90
2023-05-16T01:36:25.462Z,7.98
2023-05-16T01:39:04.666Z,8.04
2023-05-16T01:41:42.385Z,8.18
2023-05-16T01:44:18.710Z,8.98
2023-05-16T01:46:49.448Z,8.89
2023-05-16T01:49:23.034Z,9.34
2023-05-16T01:51:53.902Z,9.81
2023-05-16T01:54:26.872Z,9.84
2023-05-16T01:56:58.533Z,9.93
2023-05-16T01:59:27.523Z,11.00
2023-05-16T02:01:59.366Z,11.61
2023-05-16T02:04:28.344Z,11.82
2023-05-16T02:06:56.976Z,12.16
2023-05-16T02:09:26.087Z,12.61
2023-05-16T02:11:54.893Z,13.04
2023-05-16T02:14:25.976Z,13.14
2023-05-16T02:16:55.560Z,13.85
2023-05-16T02:19:24.304Z,14.42
2023-05-16T02:21:54.216Z,14.63
2023-05-16T02:24:22.758Z,14.84
2023-05-16T02:26:51.435Z,14.87
2023-05-16T02:29:19.981Z,14.88
2023-05-16T02:31:52.760Z,15.02
2023-05-16T02:34:21.192Z,14.93
2023-05-16T02:36:49.637Z,15.03
2023-05-16T02:39:19.059Z,13.17
2023-05-16T02:41:50.295Z,12.24
2023-05-16T02:44:18.963Z,11.90
2023-05-16T02:46:47.638Z,11.80
2023-05-16T02:49:17.804Z,12.35
2023-05-16T02:51:47.199Z,13.57
2023-05-16T02:54:15.845Z,14.48
2023-05-16T02:56:44.498Z,13.23
2023-05-16T02:59:13.944Z,12.54
2023-05-16T03:01:42.578Z,12.20
2023-05-16T03:04:11.394Z,12.12
2023-05-16T03:06:41.380Z,11.81
2023-05-16T03:09:09.899Z,11.64
2023-05-16T03:11:38.376Z,11.70
2023-05-16T03:14:07.473Z,11.84
2023-05-16T03:16:36.984Z,11.82
2023-05-16T03:19:05.583Z,11.97
2023-05-16T03:21:35.268Z,12.00
2023-05-16T03:24:06.084Z,11.96
2023-05-16T03:26:34.531Z,11.94
2023-05-16T03:29:03.453Z,11.98
2023-05-16T03:31:33.195Z,12.04
2023-05-16T03:34:01.558Z,12.25
2023-05-16T03:36:30.470Z,12.46
2023-05-16T03:38:58.938Z,12.50
2023-05-16T03:41:29.423Z,12.59
2023-05-16T03:43:57.957Z,12.71
2023-05-16T03:46:26.814Z,12.86
2023-05-16T03:48:55.222Z,13.12
2023-05-16T03:51:23.775Z,13.63
2023-05-16T03:53:52.271Z,13.80
2023-05-16T03:56:21.789Z,14.05
2023-05-16T03:58:51.490Z,14.20
2023-05-16T04:01:20.104Z,14.40
2023-05-16T04:03:48.441Z,14.57
2023-05-16T04:06:20.140Z,14.70
2023-05-16T04:08:49.405Z,14.76
2023-05-16T04:11:17.735Z,14.90
2023-05-16T04:13:46.133Z,14.96
2023-05-16T04:16:15.977Z,14.96
2023-05-16T04:18:44.709Z,15.01
2023-05-16T04:21:15.418Z,15.04
2023-05-16T04:23:43.978Z,15.00
2023-05-16T04:26:12.917Z,15.00
2023-05-16T04:28:41.480Z,15.15
2023-05-16T04:31:11.259Z,15.17
2023-05-16T04:33:41.606Z,15.23
2023-05-16T04:36:10.078Z,15.33
2023-05-16T04:38:38.852Z,15.41
2023-05-16T04:41:08.976Z,15.36
2023-05-16T04:43:38.287Z,15.38
2023-05-16T04:46:07.749Z,15.43
2023-05-16T04:48:36.540Z,15.50
2023-05-16T04:51:06.587Z,15.45
2023-05-16T04:53:35.656Z,15.57
2023-05-16T04:56:05.891Z,15.44
2023-05-16T04:58:34.450Z,15.42
2023-05-16T05:01:02.951Z,15.42
2023-05-16T05:03:34.268Z,15.50
2023-05-16T05:06:02.693Z,15.51
2023-05-16T05:08:32.662Z,15.50
2023-05-16T05:11:01.333Z,15.57
2023-05-16T05:13:29.847Z,15.52
2023-05-16T05:15:58.694Z,15.69
2023-05-16T05:18:27.205Z,15.63
2023-05-16T05:21:00.966Z,15.73
2023-05-16T05:23:30.207Z,15.75
2023-05-16T05:26:00.000Z,15.83
2023-05-16T05:28:28.603Z,15.78
2023-05-16T05:30:57.323Z,15.88
2023-05-16T05:33:29.912Z,15.84
2023-05-16T05:36:01.873Z,15.97
2023-05-16T05:38:32.096Z,16.00
2023-05-16T05:41:01.858Z,16.04
2023-05-16T05:43:30.440Z,16.04
2023-05-16T05:45:59.108Z,15.99
2023-05-16T05:48:28.739Z,15.97
2023-05-16T05:50:57.861Z,16.07
2023-05-16T05:53:26.479Z,16.18
2023-05-16T05:55:55.087Z,16.20
2023-05-16T05:58:25.317Z,16.11
2023-05-16T06:00:53.732Z,16.25
2023-05-16T06:03:22.468Z,16.17
2023-05-16T06:05:50.971Z,16.25
2023-05-16T06:08:19.711Z,16.18
2023-05-16T06:10:49.271Z,16.31
2023-05-16T06:13:19.966Z,16.31
2023-05-16T06:15:53.319Z,16.37
2023-05-16T06:18:22.266Z,16.58
2023-05-16T06:20:52.428Z,16.61
2023-05-16T06:23:21.613Z,16.59
2023-05-16T06:25:49.928Z,16.59
2023-05-16T06:28:18.576Z,16.72
2023-05-16T06:30:48.028Z,16.85
2023-05-16T06:33:18.157Z,16.74
2023-05-16T06:35:46.548Z,16.78
2023-05-16T06:38:15.222Z,16.82
2023-05-16T06:40:43.658Z,16.79
2023-05-16T06:43:13.111Z,17.03
2023-05-16T06:45:42.195Z,16.95
2023-05-16T06:48:10.765Z,16.97
2023-05-16T06:50:43.882Z,16.93
2023-05-16T06:53:12.502Z,16.78
2023-05-16T06:55:42.717Z,16.89
2023-05-16T06:58:12.940Z,16.91
2023-05-16T07:00:42.122Z,16.91
2023-05-16T07:03:10.652Z,17.02
2023-05-16T07:05:40.614Z,17.24
2023-05-16T07:08:12.547Z,17.22
2023-05-16T07:10:41.461Z,17.36
2023-05-16T07:13:10.076Z,17.27
2023-05-16T07:15:44.658Z,17.28
2023-05-16T07:18:13.433Z,17.34
2023-05-16T07:20:43.316Z,17.42
2023-05-16T07:23:12.271Z,17.44
2023-05-16T07:25:40.671Z,17.52
2023-05-16T07:28:09.183Z,17.63
2023-05-16T07:30:40.438Z,17.77
2023-05-16T07:33:08.979Z,17.74
2023-05-16T07:35:37.431Z,17.62
2023-05-16T07:38:07.581Z,17.62
2023-05-16T07:40:38.874Z,17.70
2023-05-16T07:43:07.455Z,17.78
2023-05-16T07:45:38.597Z,17.99
2023-05-16T07:48:07.482Z,17.77
2023-05-16T07:50:35.915Z,17.79
2023-05-16T07:53:04.567Z,17.92
2023-05-16T07:55:34.496Z,18.20
2023-05-16T07:58:03.366Z,18.28
2023-05-16T08:00:31.998Z,18.26
2023-05-16T08:03:00.789Z,18.24
2023-05-16T08:05:29.871Z,18.38
2023-05-16T08:07:58.876Z,18.24
2023-05-16T08:10:27.575Z,18.07
2023-05-16T08:12:57.487Z,17.99
2023-05-16T08:15:28.053Z,18.20
2023-05-16T08:17:59.199Z,18.23
2023-05-16T08:20:28.080Z,18.38
2023-05-16T08:22:56.902Z,18.32
2023-05-16T08:25:25.833Z,18.46
2023-05-16T08:27:54.662Z,18.47
2023-05-16T08:30:24.505Z,18.60
2023-05-16T08:32:54.299Z,19.00
2023-05-16T08:35:23.119Z,18.70
2023-05-16T08:37:51.658Z,18.62
2023-05-16T08:40:20.900Z,18.75
2023-05-16T08:42:49.573Z,19.06
2023-05-16T08:45:20.865Z,18.70
2023-05-16T08:47:52.101Z,18.57
2023-05-16T08:50:20.648Z,18.75
2023-05-16T08:52:49.451Z,18.79
2023-05-16T08:55:18.715Z,18.54
2023-05-16T08:57:51.489Z,18.72
2023-05-16T09:00:20.714Z,19.01
2023-05-16T09:02:53.033Z,18.71
2023-05-16T09:05:21.873Z,17.92
2023-05-16T09:07:50.567Z,18.21
2023-05-16T09:10:19.281Z,18.04
2023-05-16T09:12:48.498Z,18.28
2023-05-16T09:15:19.840Z,18.16
2023-05-16T09:17:49.508Z,18.20
2023-05-16T09:20:21.423Z,18.40
2023-05-16T09:22:54.872Z,18.27
2023-05-16T09:27:57.346Z,18.71
2023-05-16T09:30:30.148Z,18.68
2023-05-16T09:32:59.495Z,19.08
2023-05-16T09:38:01.399Z,18.75
2023-05-16T09:40:29.985Z,18.78
2023-05-16T09:43:08.654Z,18.47
2023-05-16T09:45:40.109Z,18.20
2023-05-16T09:48:10.378Z,18.34
2023-05-16T09:50:40.237Z,18.49
2023-05-16T09:53:09.079Z,18.57
2023-05-16T09:55:37.504Z,18.69
2023-05-16T09:58:06.162Z,18.49
2023-05-16T10:00:35.453Z,18.55
2023-05-16T10:03:06.102Z,18.96
2023-05-16T10:05:35.963Z,19.11
2023-05-16T10:08:09.383Z,18.79
2023-05-16T10:10:39.740Z,18.79
2023-05-16T10:13:09.184Z,18.86
2023-05-16T10:15:41.401Z,18.90
2023-05-16T10:18:13.584Z,18.53
2023-05-16T10:20:44.483Z,18.73
2023-05-16T10:23:19.057Z,18.92
2023-05-16T10:25:48.809Z,18.88
2023-05-16T10:28:20.888Z,18.87
2023-05-16T10:30:50.051Z,19.08
2023-05-16T10:33:19.809Z,19.21
2023-05-16T10:35:51.539Z,19.16
2023-05-16T10:38:22.563Z,19.20
2023-05-16T10:40:52.528Z,19.22
2023-05-16T10:43:30.551Z,19.12
2023-05-16T10:46:01.419Z,19.01
2023-05-16T10:48:31.410Z,19.03
2023-05-16T10:51:00.661Z,19.18
2023-05-16T10:53:35.105Z,19.29
2023-05-16T10:56:09.026Z,19.22
2023-05-16T10:58:45.013Z,18.96
2023-05-16T11:01:25.123Z,19.00
2023-05-16T11:04:11.169Z,19.05
2023-05-16T11:06:48.501Z,19.27
2023-05-16T11:09:27.648Z,19.24
2023-05-16T11:12:04.110Z,19.29
2023-05-16T11:14:42.530Z,19.16
2023-05-16T11:17:13.080Z,19.23
2023-05-16T11:19:43.990Z,19.09
2023-05-16T11:22:24.206Z,19.02
2023-05-16T11:24:57.861Z,19.09
2023-05-16T11:27:29.045Z,19.17
2023-05-16T11:30:03.277Z,19.44
2023-05-16T11:32:36.540Z,19.31
2023-05-16T11:35:06.234Z,19.13
2023-05-16T11:37:36.551Z,19.10
2023-05-16T11:40:08.673Z,19.36
2023-05-16T11:42:42.693Z,19.33
2023-05-16T11:45:15.985Z,19.35
2023-05-16T11:47:49.341Z,19.49
2023-05-16T11:50:19.486Z,19.34
2023-05-16T11:52:50.426Z,19.61
2023-05-16T11:55:39.512Z,19.27
2023-05-16T11:58:09.778Z,19.46
2023-05-16T12:00:38.353Z,19.60
2023-05-16T12:03:08.374Z,19.67
2023-05-16T12:05:37.149Z,19.43
2023-05-16T12:08:06.831Z,19.63
2023-05-16T12:10:36.708Z,19.81
2023-05-16T12:13:05.549Z,19.77
2023-05-16T12:15:34.782Z,19.56
2023-05-16T12:18:03.773Z,19.76
2023-05-16T12:20:32.249Z,19.68
2023-05-16T12:23:01.187Z,19.48
2023-05-16T12:25:32.056Z,19.26
2023-05-16T12:28:03.714Z,19.48
2023-05-16T12:30:34.003Z,19.60
2023-05-16T12:33:07.981Z,19.51
2023-05-16T12:35:39.514Z,19.62
2023-05-16T12:38:09.237Z,19.59
2023-05-16T12:40:40.666Z,19.83
2023-05-16T12:43:18.157Z,19.61
2023-05-16T12:45:52.928Z,19.37
2023-05-16T12:48:22.510Z,19.53
2023-05-16T12:50:51.287Z,19.52
2023-05-16T12:53:25.582Z,19.49
2023-05-16T12:55:53.913Z,19.73
2023-05-16T12:58:26.321Z,19.81
2023-05-16T13:00:55.309Z,19.75
2023-05-16T13:03:25.352Z,19.63
2023-05-16T13:05:54.248Z,19.54
2023-05-16T13:08:23.250Z,19.45
2023-05-16T13:10:51.921Z,19.50
2023-05-16T13:13:32.558Z,19.54
2023-05-16T13:16:06.792Z,19.79
2023-05-16T13:18:36.639Z,19.76
2023-05-16T13:21:05.290Z,19.85
2023-05-16T13:23:34.422Z,19.87
2023-05-16T13:26:02.915Z,19.96
2023-05-16T13:28:32.217Z,19.93
2023-05-16T13:31:01.041Z,20.06
2023-05-16T13:33:32.906Z,19.79
2023-05-16T13:36:01.860Z,19.93
2023-05-16T13:38:30.987Z,19.79
2023-05-16T13:40:59.738Z,19.79
2023-05-16T13:43:28.864Z,19.79
2023-05-16T13:45:57.620Z,19.83
2023-05-16T13:48:26.424Z,19.86
2023-05-16T13:50:56.987Z,19.80
2023-05-16T13:53:25.596Z,19.67
2023-05-16T13:55:54.505Z,19.69
2023-05-16T13:58:23.207Z,19.73
2023-05-16T14:00:54.568Z,19.48
2023-05-16T14:03:24.228Z,19.55
2023-05-16T14:05:53.113Z,19.68
2023-05-16T14:08:23.416Z,19.79
2023-05-16T14:10:52.105Z,19.74
2023-05-16T14:13:21.240Z,19.63
2023-05-16T14:15:49.821Z,19.50
2023-05-16T14:18:20.835Z,19.52
2023-05-16T14:20:50.818Z,19.53
2023-05-16T14:23:19.369Z,19.51
2023-05-16T14:25:49.880Z,19.62
2023-05-16T14:28:18.367Z,19.58
2023-05-16T14:30:47.978Z,19.75
2023-05-16T14:33:16.909Z,19.75
2023-05-16T14:35:45.377Z,19.84
2023-05-16T14:38:16.466Z,19.61
2023-05-16T14:40:45.005Z,19.84
2023-05-16T14:43:14.933Z,19.71
2023-05-16T14:45:43.836Z,19.67
2023-05-16T14:48:12.267Z,19.71
2023-05-16T14:50:41.089Z,19.67
2023-05-16T14:53:09.695Z,19.61
2023-05-16T14:55:38.373Z,19.71
2023-05-16T14:58:06.906Z,19.66
2023-05-16T15:00:38.252Z,19.53
2023-05-16T15:03:06.958Z,19.44
2023-05-16T15:05:37.921Z,19.53
2023-05-16T15:08:06.851Z,19.34
2023-05-16T15:10:35.317Z,19.36
2023-05-16T15:13:04.487Z,19.40
2023-05-16T15:15:34.567Z,19.37
2023-05-16T15:18:04.506Z,19.26
2023-05-16T15:20:33.495Z,19.36
2023-05-16T15:23:02.019Z,19.22
2023-05-16T15:25:31.205Z,19.26
2023-05-16T15:28:00.500Z,19.28
2023-05-16T15:30:30.430Z,19.16
2023-05-16T15:32:59.011Z,19.22
2023-05-16T15:35:29.283Z,19.12
2023-05-16T15:37:59.843Z,19.15
2023-05-16T15:40:31.393Z,19.00
2023-05-16T15:43:10.979Z,18.98
2023-05-16T15:45:40.482Z,18.96
2023-05-16T15:48:11.614Z,18.81
2023-05-16T15:50:47.672Z,18.70
2023-05-16T15:53:19.123Z,18.63
2023-05-16T15:55:48.114Z,18.60
2023-05-16T15:58:16.539Z,18.56
2023-05-16T16:00:45.713Z,18.63
2023-05-16T16:03:14.330Z,18.59
2023-05-16T16:05:44.616Z,18.58
2023-05-16T16:08:18.067Z,18.49
2023-05-16T16:10:46.907Z,18.49
2023-05-16T16:13:15.390Z,18.53
2023-05-16T16:15:44.172Z,18.45
2023-05-16T16:18:16.501Z,18.34
2023-05-16T16:20:46.642Z,18.26
2023-05-16T16:23:19.683Z,18.16
2023-05-16T16:25:48.403Z,18.04
2023-05-16T16:28:17.040Z,17.96
2023-05-16T16:30:50.440Z,17.85
2023-05-16T16:33:19.720Z,17.60
2023-05-16T16:35:49.562Z,17.58
2023-05-16T16:38:18.315Z,17.56
2023-05-16T16:40:46.791Z,17.43
2023-05-16T16:43:15.676Z,17.27
2023-05-16T16:45:45.444Z,17.28
2023-05-16T16:48:14.929Z,17.36
2023-05-16T16:50:44.571Z,17.24
2023-05-16T16:53:17.774Z,17.19
2023-05-16T16:55:46.522Z,17.13
2023-05-16T16:58:15.343Z,17.05
2023-05-16T17:00:46.469Z,16.90
2023-05-16T17:03:15.071Z,16.94
2023-05-16T17:05:44.684Z,16.89
2023-05-16T17:08:13.508Z,16.87
2023-05-16T17:10:43.492Z,16.74
2023-05-16T17:13:14.963Z,16.60
2023-05-16T17:15:47.318Z,16.78
2023-05-16T17:18:16.273Z,16.76
2023-05-16T17:20:44.846Z,16.66
2023-05-16T17:23:13.368Z,16.70
2023-05-16T17:25:45.343Z,16.80
2023-05-16T17:28:16.324Z,16.78
2023-05-16T17:30:45.062Z,16.81
2023-05-16T17:33:13.645Z,16.77
2023-05-16T17:35:42.552Z,16.58
2023-05-16T17:38:11.486Z,16.48
2023-05-16T17:40:43.253Z,16.46
2023-05-16T17:43:13.445Z,16.50
2023-05-16T17:45:42.139Z,16.46
2023-05-16T17:48:13.952Z,16.24
2023-05-16T17:50:43.494Z,16.26
2023-05-16T17:53:12.092Z,16.31
2023-05-16T17:55:41.133Z,16.23
2023-05-16T17:58:09.813Z,16.23
2023-05-16T18:00:39.849Z,16.16
2023-05-16T18:03:09.660Z,15.99
2023-05-16T18:05:38.437Z,16.09
2023-05-16T18:08:08.546Z,15.89
2023-05-16T18:10:51.170Z,16.05
2023-05-16T18:13:22.172Z,16.10
2023-05-16T18:15:52.710Z,15.90
2023-05-16T18:18:22.159Z,15.76
2023-05-16T18:20:51.088Z,15.87
2023-05-16T18:23:19.832Z,15.81
2023-05-16T18:25:48.352Z,15.95
2023-05-16T18:28:16.930Z,15.76
2023-05-16T18:30:45.611Z,15.75
2023-05-16T18:33:15.468Z,16.06
2023-05-16T18:35:43.878Z,15.87
2023-05-16T18:38:20.280Z,15.76
2023-05-16T18:40:57.541Z,15.67
2023-05-16T18:43:26.549Z,15.68
2023-05-16T18:45:55.247Z,15.73
2023-05-16T18:48:25.096Z,15.68
2023-05-16T18:50:54.113Z,15.78
2023-05-16T18:53:22.789Z,15.62
2023-05-16T18:55:52.408Z,15.69
2023-05-16T18:58:21.136Z,15.44
2023-05-16T19:00:49.918Z,15.49
2023-05-16T19:03:18.712Z,15.60
2023-05-16T19:05:55.112Z,15.46
2023-05-16T19:08:25.564Z,15.55
2023-05-16T19:10:57.309Z,15.39
2023-05-16T19:13:25.745Z,15.50
2023-05-16T19:15:54.544Z,15.57
2023-05-16T19:18:23.388Z,15.45
2023-05-16T19:20:53.445Z,15.20
2023-05-16T19:23:21.830Z,15.11
2023-05-16T19:25:50.522Z,15.17
2023-05-16T19:28:18.997Z,15.13
2023-05-16T19:30:47.784Z,15.11
2023-05-16T19:33:16.690Z,14.99
2023-05-16T19:35:48.369Z,15.08
2023-05-16T19:38:19.898Z,15.16
2023-05-16T19:40:48.650Z,14.99
2023-05-16T19:43:17.030Z,14.84
2023-05-16T19:45:45.680Z,14.99
2023-05-16T19:48:14.259Z,15.09
2023-05-16T19:50:42.754Z,14.97
2023-05-16T19:53:11.691Z,14.91
2023-05-16T19:55:41.560Z,15.04
2023-05-16T19:58:09.947Z,14.94
2023-05-16T20:00:38.695Z,14.96
2023-05-16T20:03:07.138Z,14.88
2023-05-16T20:05:36.017Z,14.93
2023-05-16T20:08:04.494Z,14.94
2023-05-16T20:10:32.989Z,14.78
2023-05-16T20:13:05.927Z,14.82
2023-05-16T20:15:34.509Z,14.99
2023-05-16T20:18:03.368Z,14.55
2023-05-16T20:20:32.087Z,14.51
2023-05-16T20:23:00.686Z,14.40
2023-05-16T20:25:30.156Z,14.29
2023-05-16T20:27:59.023Z,14.43
2023-05-16T20:30:30.183Z,14.49
2023-05-16T20:32:59.042Z,14.80
2023-05-16T20:35:27.909Z,14.64
2023-05-16T20:37:56.644Z,14.48
2023-05-16T20:40:25.142Z,14.45
2023-05-16T20:42:53.974Z,14.30
2023-05-16T20:45:23.942Z,14.45
2023-05-16T20:47:53.964Z,14.39
2023-05-16T20:50:22.441Z,14.38
2023-05-16T20:52:50.896Z,14.37
2023-05-16T20:55:23.522Z,14.15
2023-05-16T20:57:52.341Z,14.36
2023-05-16T21:00:21.136Z,14.24
2023-05-16T21:02:49.887Z,14.03
2023-05-16T21:05:34.753Z,14.26
2023-05-16T21:08:06.197Z,14.12
2023-05-16T21:10:34.674Z,14.10
2023-05-16T21:13:03.888Z,14.19
2023-05-16T21:15:32.705Z,14.17
2023-05-16T21:18:01.407Z,13.96
2023-05-16T21:20:33.879Z,14.19
2023-05-16T21:23:05.468Z,14.05
2023-05-16T21:25:33.945Z,14.16
2023-05-16T21:28:05.307Z,14.29
2023-05-16T21:30:33.991Z,14.22
2023-05-16T21:33:04.148Z,14.21
2023-05-16T21:35:37.470Z,14.01
2023-05-16T21:38:08.895Z,14.07
2023-05-16T21:40:37.513Z,13.90
2023-05-16T21:43:06.006Z,14.06
2023-05-16T21:45:36.720Z,14.05
2023-05-16T21:48:06.431Z,13.94
2023-05-16T21:50:36.452Z,13.74
2023-05-16T21:53:05.157Z,13.63
2023-05-16T21:55:33.805Z,13.53
2023-05-16T21:58:03.784Z,13.23
2023-05-16T22:00:35.247Z,13.51
2023-05-16T22:03:04.080Z,13.85
2023-05-16T22:05:32.698Z,13.84
2023-05-16T22:08:03.547Z,13.59
2023-05-16T22:10:32.016Z,13.42
2023-05-16T22:13:01.592Z,13.30
2023-05-16T22:15:30.795Z,13.44
2023-05-16T22:17:59.815Z,13.75
2023-05-16T22:20:28.659Z,13.64
2023-05-16T22:22:57.220Z,13.45
2023-05-16T22:25:27.565Z,13.49
2023-05-16T22:27:56.089Z,13.63
2023-05-16T22:30:25.076Z,13.50
2023-05-16T22:32:54.788Z,13.37
2023-05-16T22:35:25.231Z,13.21
2023-05-16T22:37:53.776Z,13.31
2023-05-16T22:40:22.361Z,13.07
2023-05-16T22:42:52.401Z,13.08
2023-05-16T22:45:21.201Z,13.02
2023-05-16T22:47:52.150Z,12.93
2023-05-16T22:50:20.988Z,12.90
2023-05-16T22:52:49.488Z,12.51
2023-05-16T22:55:18.415Z,12.68
2023-05-16T22:57:46.941Z,12.74
2023-05-16T23:00:22.834Z,12.48
2023-05-16T23:02:51.638Z,12.35
2023-05-16T23:05:20.721Z,12.28
2023-05-16T23:07:49.288Z,12.18
2023-05-16T23:10:20.427Z,12.32
2023-05-16T23:12:49.404Z,12.31
2023-05-16T23:15:19.505Z,12.10
2023-05-16T23:17:48.434Z,12.37
2023-05-16T23:20:16.895Z,12.40
2023-05-16T23:22:45.761Z,12.21
2023-05-16T23:25:16.862Z,12.10
2023-05-16T23:27:45.368Z,11.97
2023-05-16T23:30:14.534Z,11.96
2023-05-16T23:32:44.703Z,11.85
2023-05-16T23:35:13.100Z,11.92
2023-05-16T23:37:41.633Z,11.94
2023-05-16T23:40:10.824Z,11.95
2023-05-16T23:42:40.876Z,12.05
2023-05-16T23:45:10.444Z,12.13
2023-05-16T23:47:39.046Z,11.94
2023-05-16T23:50:10.057Z,11.76
2023-05-16T23:52:38.640Z,11.69
2023-05-16T23:55:08.097Z,11.73
2023-05-16T23:57:36.771Z,11.66
